Time;durP1;ratioP1;P1;durP2;ratioP2;P2;SDS_P1;SDS_P2;PMS_P1;PMS_P2;Temp;Humidity;BMP_temperature;BMP_pressure;BME280_temperature;BME280_humidity;BME280_pressure;Samples;Min_cycle;Max_cycle;Signal;HPM_P1;HPM_P2
2023/03/05 00:00:27;;;;;;;30.58;20.92;;;;;;;0.89;100.00;96066.75;4990821;28;25006;-73
2023/03/05 00:02:54;;;;;;;28.42;20.95;;;;;;;0.89;100.00;96069.31;4989869;28;24432;-73
2023/03/05 00:05:20;;;;;;;25.75;19.85;;;;;;;0.88;100.00;96072.69;4987044;28;24440;-73
2023/03/05 00:07:47;;;;;;;26.00;19.83;;;;;;;0.96;100.00;96070.00;4990129;28;24463;-73
2023/03/05 00:10:14;;;;;;;26.63;20.08;;;;;;;1.10;100.00;96065.44;4986427;28;24835;-73
2023/03/05 00:12:40;;;;;;;25.50;20.27;;;;;;;1.04;100.00;96060.50;4988051;28;24448;-73
2023/03/05 00:15:09;;;;;;;26.88;20.70;;;;;;;1.00;100.00;96066.50;4983635;28;24434;-73
2023/03/05 00:17:36;;;;;;;27.17;20.38;;;;;;;1.14;100.00;96066.22;4990147;28;24433;-73
2023/03/05 00:20:02;;;;;;;28.20;20.17;;;;;;;1.02;100.00;96064.78;4990325;28;24445;-73
2023/03/05 00:22:29;;;;;;;27.33;21.17;;;;;;;0.89;100.00;96059.09;4983601;28;24437;-73
2023/03/05 00:24:55;;;;;;;26.75;18.73;;;;;;;0.91;100.00;96064.16;4987637;28;24445;-73
2023/03/05 00:27:22;;;;;;;30.83;23.50;;;;;;;0.84;100.00;96068.53;4983040;28;24812;-73
2023/03/05 00:29:48;;;;;;;32.73;24.13;;;;;;;0.85;100.00;96060.00;4982085;28;24453;-73
2023/03/05 00:32:16;;;;;;;38.85;27.15;;;;;;;0.82;100.00;96056.69;4987074;28;24444;-74
2023/03/05 00:34:43;;;;;;;51.00;31.02;;;;;;;0.93;100.00;96054.78;4986351;28;24986;-74
2023/03/05 00:37:09;;;;;;;58.40;34.95;;;;;;;0.92;100.00;96053.06;4979134;28;24444;-74
2023/03/05 00:39:36;;;;;;;75.55;44.58;;;;;;;0.91;100.00;96053.94;4979476;28;24452;-74
2023/03/05 00:42:02;;;;;;;51.90;29.52;;;;;;;0.86;100.00;96046.41;4985629;28;25073;-74
2023/03/05 00:44:28;;;;;;;34.75;23.98;;;;;;;0.86;100.00;96046.41;4986671;28;24436;-74
2023/03/05 00:46:55;;;;;;;31.83;22.23;;;;;;;0.78;100.00;96048.28;4989703;28;24443;-74
2023/03/05 00:49:23;;;;;;;28.10;21.47;;;;;;;0.79;100.00;96051.66;4982534;28;24464;-73
2023/03/05 00:51:49;;;;;;;29.10;20.55;;;;;;;0.79;100.00;96046.56;4981615;28;24990;-73
2023/03/05 00:54:16;;;;;;;32.28;20.63;;;;;;;0.73;100.00;96052.59;4986853;28;24445;-73
2023/03/05 00:56:42;;;;;;;26.55;19.85;;;;;;;0.79;100.00;96047.41;4988392;28;24440;-73
2023/03/05 00:59:09;;;;;;;27.05;20.10;;;;;;;0.64;100.00;96040.06;4989811;28;24440;-73
2023/03/05 01:01:35;;;;;;;26.38;19.00;;;;;;;0.70;100.00;96035.69;4989424;28;24440;-73
2023/03/05 01:04:02;;;;;;;23.25;17.30;;;;;;;0.73;100.00;96034.75;4989940;28;24512;-73
2023/03/05 01:06:29;;;;;;;25.45;17.45;;;;;;;0.77;100.00;96031.28;4989864;28;24796;-73
2023/03/05 01:08:56;;;;;;;23.70;17.90;;;;;;;0.82;100.00;96024.41;4989718;28;24468;-73
2023/03/05 01:11:23;;;;;;;25.65;17.58;;;;;;;0.82;100.00;96026.09;4989946;28;24527;-74
2023/03/05 01:13:49;;;;;;;23.13;18.17;;;;;;;0.88;100.00;96021.69;4988767;28;24440;-74
2023/03/05 01:16:15;;;;;;;20.80;18.00;;;;;;;0.91;100.00;96026.75;4990015;28;24444;-74
2023/03/05 01:18:42;;;;;;;26.27;20.00;;;;;;;0.93;100.00;96019.06;4987166;28;24444;-73
2023/03/05 01:21:09;;;;;;;26.83;20.42;;;;;;;0.90;100.00;96019.97;4986979;28;24440;-74
2023/03/05 01:23:37;;;;;;;30.50;21.40;;;;;;;0.77;100.00;96017.69;4982696;28;25127;-73
2023/03/05 01:26:04;;;;;;;37.22;21.95;;;;;;;0.73;100.00;96010.09;4981500;28;24491;-73
2023/03/05 01:28:31;;;;;;;30.85;22.13;;;;;;;0.81;100.00;96012.50;4987817;28;24908;-73
2023/03/05 01:30:57;;;;;;;31.20;21.90;;;;;;;0.83;100.00;96015.03;4982630;28;24442;-73
2023/03/05 01:33:24;;;;;;;25.35;20.40;;;;;;;0.77;100.00;96010.88;4988845;28;24429;-73
2023/03/05 01:35:50;;;;;;;29.38;21.48;;;;;;;0.76;100.00;96003.28;4986937;28;24437;-73
2023/03/05 01:38:18;;;;;;;29.77;21.95;;;;;;;0.78;100.00;96004.06;4987971;28;24800;-74
2023/03/05 01:40:45;;;;;;;28.50;21.63;;;;;;;0.76;100.00;96006.66;4986186;28;24808;-73
2023/03/05 01:43:27;;;;;;;31.45;20.92;;;;;;;0.80;100.00;95999.78;4985213;28;25007;-74
2023/03/05 01:46:26;;;;;;;27.33;20.77;;;;;;;0.85;100.00;96003.91;4977102;28;24437;-73
2023/03/05 01:48:56;;;;;;;24.25;20.77;;;;;;;0.83;100.00;95997.19;4928429;29;24466;-74
2023/03/05 01:51:26;;;;;;;25.65;20.55;;;;;;;0.85;100.00;95992.88;4973877;28;25217;-74
2023/03/05 01:53:54;;;;;;;23.02;18.88;;;;;;;0.87;100.00;95993.69;4982763;28;24966;-74
2023/03/05 01:56:22;;;;;;;24.48;18.23;;;;;;;0.87;100.00;95980.94;4985355;28;25097;-74
2023/03/05 01:58:49;;;;;;;23.55;17.98;;;;;;;0.87;100.00;95991.97;4987851;28;24442;-74
2023/03/05 02:01:16;;;;;;;24.92;18.08;;;;;;;0.89;100.00;95976.63;4989869;28;24436;-74
2023/03/05 02:03:43;;;;;;;27.55;20.63;;;;;;;0.92;100.00;95979.97;4980812;28;24468;-73
2023/03/05 02:06:10;;;;;;;33.08;20.98;;;;;;;0.85;100.00;95983.50;4986245;28;24444;-74
2023/03/05 02:08:36;;;;;;;31.83;20.88;;;;;;;0.83;100.00;95971.69;4987447;28;24840;-74
2023/03/05 02:11:03;;;;;;;33.88;20.33;;;;;;;0.86;100.00;95966.53;4988913;28;25002;-73
2023/03/05 02:13:34;;;;;;;26.20;19.35;;;;;;;0.90;100.00;95963.88;4983454;28;24433;-73
2023/03/05 02:16:02;;;;;;;26.33;19.02;;;;;;;0.91;100.00;95967.25;4986729;28;24449;-74
2023/03/05 02:18:28;;;;;;;25.85;19.08;;;;;;;0.90;100.00;95963.03;4989092;28;24436;-74
2023/03/05 02:21:02;;;;;;;22.73;18.15;;;;;;;0.91;100.00;95960.44;4982453;28;25113;-74
2023/03/05 02:23:31;;;;;;;24.27;17.98;;;;;;;0.92;100.00;95959.56;4992373;28;24519;-74
2023/03/05 02:25:58;;;;;;;24.67;17.77;;;;;;;0.94;100.00;95952.72;4990690;28;24437;-74
2023/03/05 02:28:29;;;;;;;25.10;18.70;;;;;;;0.92;100.00;95957.00;4992628;28;25011;-74
2023/03/05 02:30:56;;;;;;;22.80;18.55;;;;;;;0.90;100.00;95952.84;4984913;28;24437;-74
2023/03/05 02:33:24;;;;;;;26.45;18.80;;;;;;;0.86;100.00;95952.06;4991578;28;24447;-73
2023/03/05 02:35:51;;;;;;;28.27;18.48;;;;;;;0.89;100.00;95951.13;4990693;28;24445;-75
2023/03/05 02:38:20;;;;;;;23.08;17.33;;;;;;;0.94;100.00;95944.25;4984367;28;24441;-74
2023/03/05 02:40:47;;;;;;;24.60;18.53;;;;;;;0.94;100.00;95949.34;4982531;28;24453;-74
2023/03/05 02:43:13;;;;;;;25.42;19.40;;;;;;;0.93;100.00;95945.97;4988380;28;24437;-75
2023/03/05 02:45:40;;;;;;;28.83;20.67;;;;;;;0.91;100.00;95944.31;4988127;28;24963;-75
2023/03/05 02:48:06;;;;;;;27.92;19.92;;;;;;;0.89;100.00;95928.19;4988004;28;24483;-74
2023/03/05 02:50:34;;;;;;;32.90;22.30;;;;;;;0.83;100.00;95939.38;4983090;28;24796;-74
2023/03/05 02:53:00;;;;;;;29.50;21.55;;;;;;;0.80;100.00;95933.50;4981335;28;24448;-74
2023/03/05 02:55:28;;;;;;;31.25;21.17;;;;;;;0.84;100.00;95935.09;4987800;28;24444;-74
2023/03/05 02:57:54;;;;;;;28.17;21.20;;;;;;;0.85;100.00;95936.78;4990922;28;24440;-74
2023/03/05 03:00:21;;;;;;;29.52;21.63;;;;;;;0.83;100.00;95930.88;4991801;28;24445;-74
2023/03/05 03:02:48;;;;;;;27.30;20.38;;;;;;;0.84;100.00;95930.84;4982592;28;24445;-74
2023/03/05 03:05:14;;;;;;;27.52;20.60;;;;;;;0.88;100.00;95918.88;4986432;28;24452;-74
2023/03/05 03:07:41;;;;;;;26.63;20.08;;;;;;;0.86;100.00;95926.56;4991261;28;24444;-74
2023/03/05 03:10:08;;;;;;;25.58;20.27;;;;;;;0.86;100.00;95918.09;4989810;28;24452;-74
2023/03/05 03:12:38;;;;;;;30.70;20.75;;;;;;;0.83;100.00;95921.53;4989743;28;24437;-74
2023/03/05 03:15:06;;;;;;;25.00;20.98;;;;;;;0.81;100.00;95917.31;4991379;28;24437;-75
2023/03/05 03:17:35;;;;;;;26.30;21.05;;;;;;;0.86;100.00;95921.47;4985850;28;24452;-75
2023/03/05 03:20:02;;;;;;;27.85;20.13;;;;;;;0.88;100.00;95913.78;4987914;28;24503;-74
2023/03/05 03:22:29;;;;;;;32.15;20.92;;;;;;;0.90;100.00;95906.94;4990079;28;24526;-73
2023/03/05 03:24:56;;;;;;;29.53;19.97;;;;;;;0.90;100.00;95909.50;4988265;28;24448;-74
2023/03/05 03:27:22;;;;;;;26.38;18.95;;;;;;;0.82;100.00;95903.72;4992022;28;24445;-74
2023/03/05 03:29:50;;;;;;;22.70;17.52;;;;;;;0.88;100.00;95906.94;4991356;28;24461;-74
2023/03/05 03:32:16;;;;;;;26.20;18.25;;;;;;;0.91;100.00;95904.34;4990356;28;25033;-75
2023/03/05 03:34:43;;;;;;;24.20;18.35;;;;;;;0.93;100.00;95901.78;4990257;28;24620;-74
2023/03/05 03:37:10;;;;;;;28.58;18.95;;;;;;;0.87;100.00;95900.19;4991617;28;24440;-73
2023/03/05 03:39:37;;;;;;;19.63;16.38;;;;;;;0.90;100.00;95891.63;4982898;28;24437;-74
2023/03/05 03:42:04;;;;;;;25.42;17.90;;;;;;;0.95;100.00;95894.91;4986568;28;24444;-74
2023/03/05 03:44:30;;;;;;;25.75;17.60;;;;;;;0.99;100.00;95891.41;4988457;28;24440;-74
2023/03/05 03:46:58;;;;;;;24.73;17.60;;;;;;;1.04;100.00;95897.25;4980856;28;24449;-75
2023/03/05 03:49:26;;;;;;;20.42;16.15;;;;;;;0.99;100.00;95895.69;4990973;28;24464;-74
2023/03/05 03:51:54;;;;;;;24.27;15.93;;;;;;;0.99;100.00;95886.31;4985698;28;24430;-75
2023/03/05 03:54:22;;;;;;;21.70;16.70;;;;;;;1.00;100.00;95882.88;4987827;28;24531;-74
2023/03/05 03:56:48;;;;;;;19.65;15.02;;;;;;;1.03;100.00;95882.81;4989499;28;24449;-75
2023/03/05 03:59:15;;;;;;;19.92;15.48;;;;;;;1.06;100.00;95890.41;4990189;28;24436;-74
2023/03/05 04:01:41;;;;;;;19.58;14.35;;;;;;;0.94;100.00;95888.97;4989530;28;24533;-74
2023/03/05 04:04:10;;;;;;;20.27;13.45;;;;;;;0.93;100.00;95883.91;4987855;28;24445;-74
2023/03/05 04:06:37;;;;;;;21.20;14.18;;;;;;;0.98;100.00;95894.00;4988837;28;24434;-74
2023/03/05 04:09:06;;;;;;;24.33;16.67;;;;;;;0.97;100.00;95888.06;4983348;28;22776;-74
2023/03/05 04:11:33;;;;;;;21.42;15.80;;;;;;;0.99;100.00;95877.81;4989951;28;24437;-74
2023/03/05 04:14:00;;;;;;;36.30;17.58;;;;;;;1.01;100.00;95883.75;4989903;28;25017;-74
2023/03/05 04:16:27;;;;;;;21.85;16.13;;;;;;;1.05;100.00;95875.97;4990681;28;24436;-74
2023/03/05 04:18:53;;;;;;;21.58;15.85;;;;;;;1.02;100.00;95873.50;4987034;28;24438;-74
2023/03/05 04:21:21;;;;;;;21.50;15.18;;;;;;;1.04;100.00;95869.19;4986165;28;24441;-74
2023/03/05 04:23:47;;;;;;;21.58;14.55;;;;;;;0.84;100.00;95877.31;4990357;28;24436;-74
2023/03/05 04:26:14;;;;;;;20.27;13.90;;;;;;;0.82;100.00;95862.94;4990001;28;24440;-74
2023/03/05 04:28:40;;;;;;;19.52;13.43;;;;;;;0.73;100.00;95866.50;4988761;28;24468;-75
2023/03/05 04:31:07;;;;;;;20.95;14.75;;;;;;;0.76;100.00;95876.66;4984890;28;24445;-74
2023/03/05 04:33:33;;;;;;;18.48;14.15;;;;;;;0.65;100.00;95866.69;4989390;28;24475;-74
2023/03/05 04:36:00;;;;;;;21.70;14.40;;;;;;;0.67;100.00;95864.97;4989329;28;24468;-74
2023/03/05 04:38:27;;;;;;;19.75;14.05;;;;;;;0.60;100.00;95867.69;4988750;28;24444;-75
2023/03/05 04:40:54;;;;;;;28.98;14.48;;;;;;;0.64;100.00;95859.91;4983735;28;24437;-75
2023/03/05 04:43:21;;;;;;;22.67;13.50;;;;;;;0.60;100.00;95865.13;4989630;28;24445;-74
2023/03/05 04:45:47;;;;;;;20.20;14.05;;;;;;;0.69;100.00;95864.91;4989838;28;24502;-73
2023/03/05 04:48:13;;;;;;;21.08;14.73;;;;;;;0.64;100.00;95861.63;4990175;28;24429;-73
2023/03/05 04:50:40;;;;;;;20.67;14.63;;;;;;;0.62;100.00;95854.00;4985922;28;24449;-75
2023/03/05 04:53:07;;;;;;;19.17;13.70;;;;;;;0.65;100.00;95853.09;4989164;28;24460;-74
2023/03/05 04:55:34;;;;;;;20.38;13.68;;;;;;;0.59;100.00;95859.16;4989615;28;24440;-74
2023/03/05 04:58:01;;;;;;;19.25;14.18;;;;;;;0.64;100.00;95848.91;4989687;28;24440;-73
2023/03/05 05:00:27;;;;;;;19.63;13.63;;;;;;;0.69;100.00;95857.25;4986715;28;24440;-73
2023/03/05 05:02:54;;;;;;;19.85;13.93;;;;;;;0.64;100.00;95849.72;4988747;28;24433;-73
2023/03/05 05:05:23;;;;;;;19.17;12.70;;;;;;;0.70;100.00;95848.72;4989845;28;24448;-74
2023/03/05 05:07:50;;;;;;;22.23;13.13;;;;;;;0.70;100.00;95851.28;4989918;28;25273;-74
2023/03/05 05:10:17;;;;;;;20.65;14.13;;;;;;;0.64;100.00;95836.97;4986496;28;24999;-73
2023/03/05 05:12:45;;;;;;;24.23;14.52;;;;;;;0.63;100.00;95840.41;4984396;28;24436;-73
2023/03/05 05:15:12;;;;;;;21.67;14.55;;;;;;;0.64;100.00;95846.34;4985959;28;24792;-73
2023/03/05 05:17:38;;;;;;;22.37;14.83;;;;;;;0.52;100.00;95838.94;4987831;28;24832;-73
2023/03/05 05:20:06;;;;;;;26.05;15.35;;;;;;;0.47;100.00;95846.72;4987574;28;24936;-73
2023/03/05 05:22:34;;;;;;;24.10;13.95;;;;;;;0.47;100.00;95845.00;4988476;28;24437;-73
2023/03/05 05:25:01;;;;;;;20.02;14.82;;;;;;;0.46;100.00;95840.78;4988869;28;25240;-74
2023/03/05 05:27:27;;;;;;;27.40;14.73;;;;;;;0.47;100.00;95844.16;4987643;28;24444;-74
2023/03/05 05:29:56;;;;;;;19.88;14.55;;;;;;;0.47;100.00;95839.91;4987764;28;24465;-74
2023/03/05 05:32:23;;;;;;;22.00;13.70;;;;;;;0.50;100.00;95844.09;4987264;28;24436;-74
2023/03/05 05:34:54;;;;;;;23.73;15.00;;;;;;;0.49;100.00;95837.34;4982642;28;24435;-73
2023/03/05 05:37:20;;;;;;;22.70;14.97;;;;;;;0.44;100.00;95842.50;4985988;28;24445;-74
2023/03/05 05:39:49;;;;;;;29.77;15.40;;;;;;;0.49;100.00;95844.97;4987946;28;24452;-73
2023/03/05 05:42:15;;;;;;;24.50;15.63;;;;;;;0.45;100.00;95844.22;4990000;28;24499;-73
2023/03/05 05:44:42;;;;;;;28.63;15.80;;;;;;;0.46;100.00;95845.03;4978992;28;24433;-74
2023/03/05 05:47:10;;;;;;;23.25;15.60;;;;;;;0.44;100.00;95837.41;4984734;28;24437;-74
2023/03/05 05:49:36;;;;;;;24.75;15.85;;;;;;;0.41;100.00;95841.75;4981487;28;24484;-74
2023/03/05 05:52:03;;;;;;;18.92;15.07;;;;;;;0.49;100.00;95839.88;4988589;28;24441;-74
2023/03/05 05:54:30;;;;;;;24.70;15.48;;;;;;;0.46;100.00;95845.88;4988013;28;25013;-74
2023/03/05 05:56:56;;;;;;;30.57;15.97;;;;;;;0.44;100.00;95842.50;4991842;28;24440;-74
2023/03/05 05:59:23;;;;;;;26.53;15.33;;;;;;;0.44;100.00;95844.22;4993234;28;25003;-75
2023/03/05 06:01:49;;;;;;;22.55;15.63;;;;;;;0.46;100.00;95842.50;4988606;28;24437;-74
2023/03/05 06:04:17;;;;;;;24.83;14.95;;;;;;;0.47;100.00;95841.63;4993126;28;24440;-73
2023/03/05 06:06:43;;;;;;;21.52;14.50;;;;;;;0.46;100.00;95839.94;4991862;28;24444;-73
2023/03/05 06:09:10;;;;;;;25.60;15.63;;;;;;;0.50;100.00;95833.91;4993002;28;24472;-75
2023/03/05 06:11:37;;;;;;;25.30;15.63;;;;;;;0.47;100.00;95836.50;4986141;28;24433;-73
2023/03/05 06:14:04;;;;;;;23.98;14.98;;;;;;;0.41;100.00;95837.50;4992835;28;24451;-74
2023/03/05 06:16:31;;;;;;;22.13;14.97;;;;;;;0.41;100.00;95831.56;4992386;28;24536;-74
2023/03/05 06:18:57;;;;;;;21.30;15.27;;;;;;;0.45;100.00;95838.28;4991486;28;24504;-75
2023/03/05 06:21:25;;;;;;;21.60;14.90;;;;;;;0.40;100.00;95840.91;4992985;28;24499;-74
2023/03/05 06:23:52;;;;;;;23.02;14.65;;;;;;;0.41;100.00;95842.59;4989657;28;24435;-73
2023/03/05 06:26:21;;;;;;;21.35;14.82;;;;;;;0.41;100.00;95837.50;4990779;28;24429;-74
2023/03/05 06:28:47;;;;;;;21.87;14.87;;;;;;;0.37;100.00;95835.03;4991418;28;24538;-74
2023/03/05 06:31:17;;;;;;;22.58;15.27;;;;;;;0.44;100.00;95834.88;4989720;28;24457;-75
2023/03/05 06:33:43;;;;;;;28.20;15.82;;;;;;;0.48;100.00;95828.00;4991987;28;24440;-74
2023/03/05 06:36:12;;;;;;;25.98;15.63;;;;;;;0.47;100.00;95836.50;4992526;28;24463;-74
2023/03/05 06:38:40;;;;;;;20.50;15.03;;;;;;;0.41;100.00;95831.56;4991153;28;24440;-73
2023/03/05 06:41:10;;;;;;;23.35;15.27;;;;;;;0.41;100.00;95831.56;4991890;28;25002;-73
2023/03/05 06:43:37;;;;;;;24.15;15.05;;;;;;;0.41;100.00;95829.03;4989864;28;24439;-74
2023/03/05 06:46:05;;;;;;;18.98;14.20;;;;;;;0.43;100.00;95834.91;4987358;28;24539;-74
2023/03/05 06:48:32;;;;;;;20.20;14.75;;;;;;;0.47;100.00;95828.88;4982828;28;24438;-74
2023/03/05 06:50:59;;;;;;;32.17;15.88;;;;;;;0.44;100.00;95831.47;4985116;28;24456;-74
2023/03/05 06:53:26;;;;;;;20.27;14.43;;;;;;;0.47;100.00;95828.88;4988119;28;24440;-74
2023/03/05 06:55:54;;;;;;;19.02;13.50;;;;;;;0.57;100.00;95825.25;4982350;28;24451;-73
2023/03/05 06:58:21;;;;;;;35.08;21.83;;;;;;;0.59;100.00;95823.50;4987331;28;24440;-73
2023/03/05 07:00:48;;;;;;;29.03;19.97;;;;;;;0.71;100.00;95820.69;4986460;28;24521;-74
2023/03/05 07:03:15;;;;;;;23.15;15.45;;;;;;;0.81;100.00;95815.34;4982123;28;24991;-73
2023/03/05 07:05:42;;;;;;;22.75;16.35;;;;;;;0.71;100.00;95820.69;4987231;28;24433;-74
2023/03/05 07:08:09;;;;;;;22.52;16.30;;;;;;;0.72;100.00;95817.25;4986109;28;24468;-72
2023/03/05 07:10:38;;;;;;;23.73;17.17;;;;;;;0.84;100.00;95808.47;4986079;28;24460;-74
2023/03/05 07:13:07;;;;;;;28.02;16.45;;;;;;;0.79;100.00;95824.75;4990782;28;24491;-75
2023/03/05 07:15:34;;;;;;;20.45;15.43;;;;;;;0.83;100.00;95809.34;4991407;28;24436;-74
2023/03/05 07:18:00;;;;;;;19.38;15.32;;;;;;;0.92;100.00;95815.94;4988536;28;24452;-74
2023/03/05 07:20:27;;;;;;;23.48;14.55;;;;;;;0.90;100.00;95818.53;4988824;28;24436;-74
2023/03/05 07:22:53;;;;;;;19.40;14.87;;;;;;;0.95;100.00;95813.31;4990270;28;25058;-75
2023/03/05 07:25:20;;;;;;;24.07;13.17;;;;;;;1.02;100.00;95811.44;4991268;28;25017;-75
2023/03/05 07:27:47;;;;;;;20.58;12.90;;;;;;;1.09;100.00;95813.81;4986695;28;24437;-74
2023/03/05 07:30:15;;;;;;;20.70;13.43;;;;;;;1.17;100.00;95817.00;4988253;28;24522;-74
2023/03/05 07:32:42;;;;;;;16.25;12.07;;;;;;;1.20;100.00;95801.63;4990362;28;25013;-74
2023/03/05 07:35:09;;;;;;;20.25;13.15;;;;;;;1.20;100.00;95814.38;4991488;28;24990;-75
2023/03/05 07:37:36;;;;;;;19.88;12.77;;;;;;;1.19;100.00;95811.88;4991495;28;24441;-74
2023/03/05 07:40:04;;;;;;;20.60;13.00;;;;;;;1.29;100.00;95805.63;4991399;28;24444;-74
2023/03/05 07:42:31;;;;;;;20.27;13.52;;;;;;;1.25;100.00;95810.84;4988085;28;24444;-74
2023/03/05 07:44:57;;;;;;;17.80;12.55;;;;;;;1.22;100.00;95804.13;4989136;28;24439;-74
2023/03/05 07:47:25;;;;;;;21.42;13.20;;;;;;;1.24;100.00;95804.09;4991137;28;24998;-74
2023/03/05 07:49:52;;;;;;;18.75;12.65;;;;;;;1.30;100.00;95797.13;4989497;28;24458;-74
2023/03/05 07:52:18;;;;;;;17.80;12.45;;;;;;;1.34;100.00;95800.44;4990287;28;24440;-74
2023/03/05 07:54:45;;;;;;;19.50;12.60;;;;;;;1.30;100.00;95797.13;4982132;28;24437;-73
2023/03/05 07:57:12;;;;;;;20.10;14.48;;;;;;;1.33;100.00;95794.47;4989209;28;24436;-74
2023/03/05 07:59:39;;;;;;;20.38;12.98;;;;;;;1.39;100.00;95796.03;4989889;28;24560;-74
2023/03/05 08:02:05;;;;;;;31.17;15.45;;;;;;;1.19;100.00;95801.66;4987302;28;24801;-74
2023/03/05 08:04:33;;;;;;;25.63;14.85;;;;;;;1.18;100.00;95808.47;4990556;28;24437;-74
2023/03/05 08:07:00;;;;;;;20.63;13.43;;;;;;;1.21;100.00;95803.28;4986726;28;24437;-74
2023/03/05 08:09:28;;;;;;;20.67;14.40;;;;;;;1.21;100.00;95799.91;4990714;28;25021;-74
2023/03/05 08:11:54;;;;;;;22.45;13.52;;;;;;;1.25;100.00;95793.84;4990618;28;24444;-75
2023/03/05 08:14:20;;;;;;;25.67;15.27;;;;;;;1.26;100.00;95795.53;4990152;28;24477;-73
2023/03/05 08:16:50;;;;;;;17.37;13.13;;;;;;;1.28;100.00;95795.47;4990380;28;24451;-74
2023/03/05 08:19:18;;;;;;;26.80;13.35;;;;;;;1.30;100.00;95793.72;4986867;28;24449;-74
2023/03/05 08:21:46;;;;;;;18.17;13.43;;;;;;;1.31;100.00;95792.84;4988124;28;24433;-73
2023/03/05 08:24:14;;;;;;;18.67;13.32;;;;;;;1.31;100.00;95795.41;4985673;28;24983;-74
2023/03/05 08:26:41;;;;;;;18.73;13.23;;;;;;;1.41;100.00;95789.19;4989495;28;24447;-73
2023/03/05 08:29:08;;;;;;;24.13;19.58;;;;;;;1.50;100.00;95790.66;4985150;28;24437;-73
2023/03/05 08:31:35;;;;;;;22.55;18.55;;;;;;;1.58;100.00;95792.09;4981861;28;24949;-74
2023/03/05 08:34:02;;;;;;;24.17;16.60;;;;;;;1.70;100.00;95786.66;4989617;28;24851;-74
2023/03/05 08:36:29;;;;;;;25.33;16.52;;;;;;;1.80;100.00;95784.69;4989608;28;24804;-74
2023/03/05 08:38:58;;;;;;;25.43;16.40;;;;;;;1.78;100.00;95786.47;4990581;28;24456;-74
2023/03/05 08:41:25;;;;;;;19.83;15.23;;;;;;;1.85;100.00;95780.28;4989883;28;24437;-73
2023/03/05 08:43:51;;;;;;;18.10;12.80;;;;;;;1.93;100.00;95783.47;4979814;28;24438;-74
2023/03/05 08:46:18;;;;;;;18.15;12.73;;;;;;;1.88;100.00;95784.47;4985461;28;24436;-74
2023/03/05 08:48:45;;;;;;;17.08;12.73;;;;;;;1.94;100.00;95781.75;4986480;28;24476;-74
2023/03/05 08:51:14;;;;;;;19.38;12.27;;;;;;;2.01;100.00;95780.69;4980835;28;24442;-73
2023/03/05 08:53:42;;;;;;;17.95;12.82;;;;;;;2.09;100.00;95775.34;4981961;28;24452;-73
2023/03/05 08:56:09;;;;;;;22.20;16.25;;;;;;;2.15;100.00;95780.28;4981536;28;24443;-73
2023/03/05 08:58:36;;;;;;;22.92;15.60;;;;;;;2.30;100.00;95778.97;4988027;28;24451;-73
2023/03/05 09:01:03;;;;;;;20.40;13.75;;;;;;;2.38;100.00;95771.94;4987982;28;24443;-74
2023/03/05 09:03:30;;;;;;;18.00;12.20;;;;;;;2.30;100.00;95772.16;4987125;28;24448;-73
2023/03/05 09:05:59;;;;;;;18.30;12.27;;;;;;;2.34;100.00;95770.34;4982885;28;24440;-74
2023/03/05 09:08:26;;;;;;;18.83;12.23;;;;;;;2.40;100.00;95772.69;4987174;28;24476;-74
2023/03/05 09:10:56;;;;;;;19.58;12.52;;;;;;;2.39;100.00;95773.59;4988461;28;24448;-86
2023/03/05 09:13:24;;;;;;;19.98;13.93;;;;;;;2.32;100.00;95770.38;4982088;28;24437;-75
2023/03/05 09:15:54;;;;;;;16.23;12.73;;;;;;;2.32;100.00;95770.38;4984265;28;24441;-75
2023/03/05 09:18:20;;;;;;;15.40;11.75;;;;;;;2.46;100.00;95772.53;4986399;28;24452;-75
2023/03/05 09:20:47;;;;;;;16.60;12.93;;;;;;;2.36;100.00;95766.84;4994918;28;24441;-74
2023/03/05 09:23:13;;;;;;;20.15;12.23;;;;;;;2.43;100.00;95763.22;4989589;28;24433;-75
2023/03/05 09:25:40;;;;;;;21.40;12.57;;;;;;;2.36;100.00;95755.78;4988854;28;24444;-74
2023/03/05 09:28:07;;;;;;;18.58;13.18;;;;;;;2.32;100.00;95761.88;4988187;28;25073;-74
2023/03/05 09:30:35;;;;;;;18.90;12.90;;;;;;;2.25;100.00;95757.84;4992349;28;24453;-74
2023/03/05 09:33:02;;;;;;;22.48;13.93;;;;;;;2.28;100.00;95755.19;4991270;28;24848;-75
2023/03/05 09:35:29;;;;;;;20.33;12.88;;;;;;;2.42;100.00;95753.06;4993447;28;25044;-74
2023/03/05 09:37:56;;;;;;;19.30;12.05;;;;;;;2.42;100.00;95755.63;4991928;28;24441;-74
2023/03/05 09:40:24;;;;;;;17.13;12.55;;;;;;;2.38;100.00;95748.94;4989331;28;24440;-75
2023/03/05 09:43:05;;;;;;;20.13;13.60;;;;;;;2.33;100.00;95743.09;4986479;28;25013;-75
2023/03/05 09:45:39;;;;;;;18.75;12.55;;;;;;;2.48;100.00;95741.78;4992813;28;24457;-75
2023/03/05 09:48:16;;;;;;;18.95;13.30;;;;;;;2.60;100.00;95733.75;4991153;28;24448;-75
2023/03/05 09:50:45;;;;;;;19.90;12.90;;;;;;;2.68;100.00;95739.44;4988398;28;25025;-75
2023/03/05 09:53:21;;;;;;;20.70;13.57;;;;;;;2.59;100.00;95742.28;4981807;28;24524;-75
2023/03/05 09:55:52;;;;;;;17.45;12.98;;;;;;;2.63;100.00;95733.63;4992708;28;24788;-75
2023/03/05 09:58:26;;;;;;;15.70;12.88;;;;;;;2.67;100.00;95732.66;4984697;28;25046;-75
2023/03/05 10:00:57;;;;;;;16.67;13.15;;;;;;;2.66;100.00;95729.25;4992419;28;25005;-75
2023/03/05 10:03:27;;;;;;;15.65;12.13;;;;;;;2.72;100.00;95729.97;4990480;28;24437;-75
2023/03/05 10:06:03;;;;;;;17.10;12.32;;;;;;;2.89;100.00;95717.44;4988770;28;24441;-76
2023/03/05 10:08:40;;;;;;;15.35;12.07;;;;;;;3.03;100.00;95724.66;4987255;28;24437;-75
2023/03/05 10:11:11;;;;;;;18.83;12.27;;;;;;;3.16;100.00;95718.22;4987572;28;24453;-75
2023/03/05 10:13:42;;;;;;;18.85;12.77;;;;;;;3.18;100.00;95725.84;4991324;28;24795;-75
2023/03/05 10:16:40;;;;;;;14.53;11.87;;;;;;;3.23;100.00;95723.97;4992271;28;24433;-75
2023/03/05 10:19:13;;;;;;;20.73;13.35;;;;;;;3.28;100.00;95722.91;4981774;28;24438;-75
2023/03/05 10:21:46;;;;;;;17.63;13.32;;;;;;;3.19;100.00;95724.94;4992219;28;24513;-75
2023/03/05 10:24:22;;;;;;;18.67;13.50;;;;;;;3.08;100.00;95718.50;4992858;28;24775;-75
2023/03/05 10:26:59;;;;;;;17.30;13.07;;;;;;;3.02;100.00;95718.69;4992990;28;24939;-75
2023/03/05 10:30:00;;;;;;;20.45;13.52;;;;;;;2.91;100.00;95715.66;4992358;28;24444;-75
2023/03/05 10:32:41;;;;;;;15.38;12.27;;;;;;;2.94;100.00;95713.00;4949239;28;25019;-75
2023/03/05 10:35:19;;;;;;;16.15;13.35;;;;;;;2.86;100.00;95712.44;4985270;28;24456;-74
2023/03/05 10:37:59;;;;;;;22.25;12.73;;;;;;;2.93;100.00;95713.91;4990975;28;24557;-75
2023/03/05 10:40:36;;;;;;;16.85;12.90;;;;;;;2.94;100.00;95705.34;4988042;28;24469;-75
2023/03/05 10:43:13;;;;;;;21.23;14.68;;;;;;;2.85;100.00;95700.50;4981150;28;24441;-75
2023/03/05 10:45:43;;;;;;;20.75;14.65;;;;;;;2.79;100.00;95696.47;4982482;28;24441;-75
2023/03/05 10:48:20;;;;;;;18.60;13.48;;;;;;;2.94;100.00;95695.09;4986832;28;24444;-75
2023/03/05 10:50:50;;;;;;;28.55;16.42;;;;;;;2.92;100.00;95697.69;4992134;28;24477;-75
2023/03/05 10:53:26;;;;;;;24.40;15.82;;;;;;;3.41;100.00;95684.91;4990385;28;24564;-75
2023/03/05 10:55:55;;;;;;;19.85;14.52;;;;;;;3.74;100.00;95687.13;4981140;28;24441;-75
2023/03/05 10:58:23;;;;;;;28.85;15.93;;;;;;;3.24;100.00;95684.69;4988068;28;24464;-75
2023/03/05 11:01:02;;;;;;;24.40;16.75;;;;;;;2.97;100.00;95684.78;4992069;28;24437;-75
2023/03/05 11:03:47;;;;;;;22.52;15.35;;;;;;;3.00;100.00;95681.25;4987992;28;24524;-75
2023/03/05 11:06:14;;;;;;;22.02;17.05;;;;;;;2.95;100.00;95678.84;4986988;28;24444;-75
2023/03/05 11:08:41;;;;;;;22.83;16.40;;;;;;;2.94;100.00;95684.03;4989368;28;24448;-75
2023/03/05 11:11:15;;;;;;;22.40;15.57;;;;;;;2.75;100.00;95678.72;4988269;28;24453;-75
2023/03/05 11:13:51;;;;;;;23.20;14.27;;;;;;;2.83;100.00;95675.00;4987839;28;24448;-75
2023/03/05 11:16:20;;;;;;;26.63;16.35;;;;;;;2.80;100.00;95682.78;4987200;28;24460;-75
2023/03/05 11:18:48;;;;;;;28.08;16.13;;;;;;;2.61;100.00;95672.31;4989457;28;24445;-75
2023/03/05 11:21:22;;;;;;;25.20;16.02;;;;;;;2.41;100.00;95672.13;4989943;28;24487;-75